sensor_id;sensor_type;location;lat;lon;timestamp;P1;durP1;ratioP1;P2;durP2;ratioP2
35223;SDS011;21367;51.930;8.112;2023-06-14T00:02:21;7.97;;;2.72;;
35223;SDS011;21367;51.930;8.112;2023-06-14T00:07:35;5.50;;;2.78;;
35223;SDS011;21367;51.930;8.112;2023-06-14T00:12:42;7.63;;;2.67;;
35223;SDS011;21367;51.930;8.112;2023-06-14T00:17:46;8.98;;;2.80;;
35223;SDS011;21367;51.930;8.112;2023-06-14T00:22:53;7.90;;;2.55;;
35223;SDS011;21367;51.930;8.112;2023-06-14T00:27:57;6.18;;;3.08;;
35223;SDS011;21367;51.930;8.112;2023-06-14T00:33:01;5.93;;;2.63;;
35223;SDS011;21367;51.930;8.112;2023-06-14T00:38:07;7.15;;;2.67;;
35223;SDS011;21367;51.930;8.112;2023-06-14T00:48:14;5.78;;;2.70;;
35223;SDS011;21367;51.930;8.112;2023-06-14T00:53:21;9.75;;;2.60;;
35223;SDS011;21367;51.930;8.112;2023-06-14T00:58:25;11.98;;;2.50;;
35223;SDS011;21367;51.930;8.112;2023-06-14T01:03:29;10.95;;;2.60;;
35223;SDS011;21367;51.930;8.112;2023-06-14T01:08:39;11.27;;;2.42;;
35223;SDS011;21367;51.930;8.112;2023-06-14T01:13:52;11.80;;;3.00;;
35223;SDS011;21367;51.930;8.112;2023-06-14T01:18:59;7.07;;;2.88;;
35223;SDS011;21367;51.930;8.112;2023-06-14T01:24:08;13.13;;;3.30;;
35223;SDS011;21367;51.930;8.112;2023-06-14T01:29:12;5.30;;;2.50;;
35223;SDS011;21367;51.930;8.112;2023-06-14T01:39:56;5.85;;;2.75;;
35223;SDS011;21367;51.930;8.112;2023-06-14T01:45:01;7.38;;;2.47;;
35223;SDS011;21367;51.930;8.112;2023-06-14T01:50:06;11.20;;;2.90;;
35223;SDS011;21367;51.930;8.112;2023-06-14T01:55:13;6.80;;;2.75;;
35223;SDS011;21367;51.930;8.112;2023-06-14T02:00:18;8.60;;;2.75;;
35223;SDS011;21367;51.930;8.112;2023-06-14T02:05:22;13.68;;;2.80;;
35223;SDS011;21367;51.930;8.112;2023-06-14T02:10:29;8.50;;;2.97;;
35223;SDS011;21367;51.930;8.112;2023-06-14T02:15:33;9.13;;;3.10;;
35223;SDS011;21367;51.930;8.112;2023-06-14T02:20:37;14.32;;;2.97;;
35223;SDS011;21367;51.930;8.112;2023-06-14T02:25:43;8.77;;;2.80;;
35223;SDS011;21367;51.930;8.112;2023-06-14T02:30:47;9.68;;;2.80;;
35223;SDS011;21367;51.930;8.112;2023-06-14T02:35:51;11.35;;;3.47;;
35223;SDS011;21367;51.930;8.112;2023-06-14T02:40:57;5.28;;;2.63;;
35223;SDS011;21367;51.930;8.112;2023-06-14T02:46:02;13.30;;;2.72;;
35223;SDS011;21367;51.930;8.112;2023-06-14T02:51:05;6.63;;;2.80;;
35223;SDS011;21367;51.930;8.112;2023-06-14T02:56:12;7.63;;;2.88;;
35223;SDS011;21367;51.930;8.112;2023-06-14T03:01:18;11.73;;;3.20;;
35223;SDS011;21367;51.930;8.112;2023-06-14T03:06:22;8.07;;;2.90;;
35223;SDS011;21367;51.930;8.112;2023-06-14T03:11:30;9.23;;;2.97;;
35223;SDS011;21367;51.930;8.112;2023-06-14T03:16:35;9.82;;;3.00;;
35223;SDS011;21367;51.930;8.112;2023-06-14T03:21:39;7.40;;;3.20;;
35223;SDS011;21367;51.930;8.112;2023-06-14T03:26:48;9.63;;;2.80;;
35223;SDS011;21367;51.930;8.112;2023-06-14T03:31:56;8.95;;;2.90;;
35223;SDS011;21367;51.930;8.112;2023-06-14T03:37:09;12.52;;;4.10;;
35223;SDS011;21367;51.930;8.112;2023-06-14T03:42:15;14.68;;;3.30;;
35223;SDS011;21367;51.930;8.112;2023-06-14T03:47:21;18.02;;;3.00;;
35223;SDS011;21367;51.930;8.112;2023-06-14T03:52:25;9.02;;;3.08;;
35223;SDS011;21367;51.930;8.112;2023-06-14T03:57:32;17.65;;;3.15;;
35223;SDS011;21367;51.930;8.112;2023-06-14T04:02:38;11.90;;;2.97;;
35223;SDS011;21367;51.930;8.112;2023-06-14T04:07:43;9.82;;;3.72;;
35223;SDS011;21367;51.930;8.112;2023-06-14T04:12:51;7.43;;;2.47;;
35223;SDS011;21367;51.930;8.112;2023-06-14T04:17:56;8.02;;;2.75;;
35223;SDS011;21367;51.930;8.112;2023-06-14T04:23:11;6.63;;;3.00;;
35223;SDS011;21367;51.930;8.112;2023-06-14T04:28:18;14.43;;;3.00;;
35223;SDS011;21367;51.930;8.112;2023-06-14T04:33:30;13.27;;;3.15;;
35223;SDS011;21367;51.930;8.112;2023-06-14T04:38:34;8.00;;;3.03;;
35223;SDS011;21367;51.930;8.112;2023-06-14T04:43:40;9.13;;;3.08;;
35223;SDS011;21367;51.930;8.112;2023-06-14T04:48:47;8.40;;;2.70;;
35223;SDS011;21367;51.930;8.112;2023-06-14T04:53:51;9.10;;;3.10;;
35223;SDS011;21367;51.930;8.112;2023-06-14T04:59:01;7.65;;;3.35;;
35223;SDS011;21367;51.930;8.112;2023-06-14T05:04:06;8.43;;;2.70;;
35223;SDS011;21367;51.930;8.112;2023-06-14T05:09:10;9.13;;;2.42;;
35223;SDS011;21367;51.930;8.112;2023-06-14T05:14:17;14.52;;;2.83;;
35223;SDS011;21367;51.930;8.112;2023-06-14T05:19:24;8.02;;;2.88;;
35223;SDS011;21367;51.930;8.112;2023-06-14T05:24:28;4.85;;;2.67;;
35223;SDS011;21367;51.930;8.112;2023-06-14T05:29:35;5.88;;;2.60;;
35223;SDS011;21367;51.930;8.112;2023-06-14T05:34:38;9.00;;;2.30;;
35223;SDS011;21367;51.930;8.112;2023-06-14T05:39:42;6.75;;;3.33;;
35223;SDS011;21367;51.930;8.112;2023-06-14T05:44:48;6.43;;;2.20;;
35223;SDS011;21367;51.930;8.112;2023-06-14T05:49:51;8.65;;;2.42;;
35223;SDS011;21367;51.930;8.112;2023-06-14T05:54:55;7.40;;;2.05;;
35223;SDS011;21367;51.930;8.112;2023-06-14T06:00:01;11.60;;;2.33;;
35223;SDS011;21367;51.930;8.112;2023-06-14T06:05:12;8.70;;;3.03;;
35223;SDS011;21367;51.930;8.112;2023-06-14T06:10:16;8.07;;;2.05;;
35223;SDS011;21367;51.930;8.112;2023-06-14T06:15:23;10.90;;;2.13;;
35223;SDS011;21367;51.930;8.112;2023-06-14T06:20:26;7.38;;;2.10;;
35223;SDS011;21367;51.930;8.112;2023-06-14T06:25:31;4.47;;;1.70;;
35223;SDS011;21367;51.930;8.112;2023-06-14T06:30:37;7.82;;;2.15;;
35223;SDS011;21367;51.930;8.112;2023-06-14T06:35:41;10.55;;;2.28;;
35223;SDS011;21367;51.930;8.112;2023-06-14T06:40:45;5.47;;;1.67;;
35223;SDS011;21367;51.930;8.112;2023-06-14T06:45:52;5.80;;;1.55;;
35223;SDS011;21367;51.930;8.112;2023-06-14T06:50:55;4.03;;;1.45;;
35223;SDS011;21367;51.930;8.112;2023-06-14T06:55:59;3.33;;;1.30;;
35223;SDS011;21367;51.930;8.112;2023-06-14T07:01:05;18.35;;;1.60;;
35223;SDS011;21367;51.930;8.112;2023-06-14T07:06:09;2.60;;;1.13;;
35223;SDS011;21367;51.930;8.112;2023-06-14T07:11:13;3.38;;;1.55;;
35223;SDS011;21367;51.930;8.112;2023-06-14T07:16:19;4.13;;;1.20;;
35223;SDS011;21367;51.930;8.112;2023-06-14T07:21:24;1.52;;;1.10;;
35223;SDS011;21367;51.930;8.112;2023-06-14T07:26:28;6.20;;;1.10;;
35223;SDS011;21367;51.930;8.112;2023-06-14T07:31:35;6.88;;;1.95;;
35223;SDS011;21367;51.930;8.112;2023-06-14T07:36:38;2.33;;;1.20;;
35223;SDS011;21367;51.930;8.112;2023-06-14T07:41:44;4.70;;;1.10;;
35223;SDS011;21367;51.930;8.112;2023-06-14T07:46:54;1.67;;;1.00;;
35223;SDS011;21367;51.930;8.112;2023-06-14T07:51:58;2.58;;;1.10;;
35223;SDS011;21367;51.930;8.112;2023-06-14T07:57:02;4.40;;;0.90;;
35223;SDS011;21367;51.930;8.112;2023-06-14T08:02:09;2.67;;;1.15;;
35223;SDS011;21367;51.930;8.112;2023-06-14T08:07:12;2.97;;;1.33;;
35223;SDS011;21367;51.930;8.112;2023-06-14T08:12:16;4.40;;;1.10;;
35223;SDS011;21367;51.930;8.112;2023-06-14T08:17:22;4.25;;;1.30;;
35223;SDS011;21367;51.930;8.112;2023-06-14T08:32:38;4.88;;;1.30;;
35223;SDS011;21367;51.930;8.112;2023-06-14T08:37:42;4.85;;;1.35;;
35223;SDS011;21367;51.930;8.112;2023-06-14T08:42:47;5.32;;;1.23;;
35223;SDS011;21367;51.930;8.112;2023-06-14T08:47:55;7.28;;;1.20;;
35223;SDS011;21367;51.930;8.112;2023-06-14T08:53:01;4.18;;;1.00;;
35223;SDS011;21367;51.930;8.112;2023-06-14T08:58:05;1.90;;;0.90;;
35223;SDS011;21367;51.930;8.112;2023-06-14T09:03:12;2.20;;;1.25;;
35223;SDS011;21367;51.930;8.112;2023-06-14T09:08:16;6.90;;;1.30;;
35223;SDS011;21367;51.930;8.112;2023-06-14T09:13:22;10.30;;;1.30;;
35223;SDS011;21367;51.930;8.112;2023-06-14T09:18:35;7.90;;;1.40;;
35223;SDS011;21367;51.930;8.112;2023-06-14T09:23:42;6.07;;;1.13;;
35223;SDS011;21367;51.930;8.112;2023-06-14T09:28:48;3.50;;;1.35;;
35223;SDS011;21367;51.930;8.112;2023-06-14T09:33:55;6.57;;;1.50;;
35223;SDS011;21367;51.930;8.112;2023-06-14T09:38:59;3.55;;;1.40;;
35223;SDS011;21367;51.930;8.112;2023-06-14T09:44:06;4.78;;;1.45;;
35223;SDS011;21367;51.930;8.112;2023-06-14T09:49:14;7.38;;;1.70;;
35223;SDS011;21367;51.930;8.112;2023-06-14T09:54:19;3.33;;;1.65;;
35223;SDS011;21367;51.930;8.112;2023-06-14T09:59:26;7.75;;;1.60;;
35223;SDS011;21367;51.930;8.112;2023-06-14T10:04:35;9.00;;;1.52;;
35223;SDS011;21367;51.930;8.112;2023-06-14T10:09:39;3.03;;;1.60;;
35223;SDS011;21367;51.930;8.112;2023-06-14T10:14:49;9.23;;;1.85;;
35223;SDS011;21367;51.930;8.112;2023-06-14T10:19:58;3.38;;;1.30;;
35223;SDS011;21367;51.930;8.112;2023-06-14T10:25:25;6.45;;;1.55;;
35223;SDS011;21367;51.930;8.112;2023-06-14T10:30:29;5.63;;;1.83;;
35223;SDS011;21367;51.930;8.112;2023-06-14T10:35:36;2.67;;;1.40;;
35223;SDS011;21367;51.930;8.112;2023-06-14T10:40:39;5.70;;;1.40;;
35223;SDS011;21367;51.930;8.112;2023-06-14T10:51:19;5.97;;;1.50;;
35223;SDS011;21367;51.930;8.112;2023-06-14T10:56:27;2.55;;;1.40;;
35223;SDS011;21367;51.930;8.112;2023-06-14T11:01:37;3.38;;;1.50;;
35223;SDS011;21367;51.930;8.112;2023-06-14T11:06:50;5.53;;;1.75;;
35223;SDS011;21367;51.930;8.112;2023-06-14T11:11:56;5.57;;;1.60;;
35223;SDS011;21367;51.930;8.112;2023-06-14T11:17:00;4.50;;;1.30;;
35223;SDS011;21367;51.930;8.112;2023-06-14T11:22:07;6.10;;;1.42;;
35223;SDS011;21367;51.930;8.112;2023-06-14T11:27:11;5.10;;;1.92;;
35223;SDS011;21367;51.930;8.112;2023-06-14T11:32:14;4.70;;;1.50;;
35223;SDS011;21367;51.930;8.112;2023-06-14T11:37:20;2.30;;;1.60;;
35223;SDS011;21367;51.930;8.112;2023-06-14T11:42:26;8.02;;;1.88;;
35223;SDS011;21367;51.930;8.112;2023-06-14T11:47:34;5.60;;;2.17;;
35223;SDS011;21367;51.930;8.112;2023-06-14T11:52:40;5.22;;;1.67;;
35223;SDS011;21367;51.930;8.112;2023-06-14T11:57:46;3.80;;;1.77;;
35223;SDS011;21367;51.930;8.112;2023-06-14T12:02:53;4.13;;;1.85;;
35223;SDS011;21367;51.930;8.112;2023-06-14T12:08:01;5.53;;;1.77;;
35223;SDS011;21367;51.930;8.112;2023-06-14T12:13:08;6.05;;;1.30;;
35223;SDS011;21367;51.930;8.112;2023-06-14T12:18:12;3.25;;;1.70;;
35223;SDS011;21367;51.930;8.112;2023-06-14T12:23:18;9.35;;;1.55;;
35223;SDS011;21367;51.930;8.112;2023-06-14T12:28:22;5.97;;;1.65;;
35223;SDS011;21367;51.930;8.112;2023-06-14T12:33:25;6.70;;;1.70;;
35223;SDS011;21367;51.930;8.112;2023-06-14T12:38:32;8.93;;;1.40;;
35223;SDS011;21367;51.930;8.112;2023-06-14T12:43:36;5.97;;;1.80;;
35223;SDS011;21367;51.930;8.112;2023-06-14T12:48:39;6.03;;;1.70;;
35223;SDS011;21367;51.930;8.112;2023-06-14T12:53:45;5.32;;;1.40;;
35223;SDS011;21367;51.930;8.112;2023-06-14T12:58:49;20.65;;;2.13;;
35223;SDS011;21367;51.930;8.112;2023-06-14T13:03:53;6.35;;;1.90;;
35223;SDS011;21367;51.930;8.112;2023-06-14T13:08:59;3.38;;;1.52;;
35223;SDS011;21367;51.930;8.112;2023-06-14T13:14:04;5.45;;;1.48;;
35223;SDS011;21367;51.930;8.112;2023-06-14T13:19:07;4.72;;;1.40;;
35223;SDS011;21367;51.930;8.112;2023-06-14T13:24:14;4.57;;;1.40;;
35223;SDS011;21367;51.930;8.112;2023-06-14T13:29:18;3.83;;;1.25;;
35223;SDS011;21367;51.930;8.112;2023-06-14T13:34:21;6.88;;;1.83;;
35223;SDS011;21367;51.930;8.112;2023-06-14T13:39:28;2.08;;;1.40;;
35223;SDS011;21367;51.930;8.112;2023-06-14T13:44:31;5.38;;;2.03;;
35223;SDS011;21367;51.930;8.112;2023-06-14T13:49:35;5.22;;;1.80;;
35223;SDS011;21367;51.930;8.112;2023-06-14T13:54:41;9.77;;;1.50;;
35223;SDS011;21367;51.930;8.112;2023-06-14T13:59:45;3.13;;;1.30;;
35223;SDS011;21367;51.930;8.112;2023-06-14T14:04:48;4.68;;;1.45;;
35223;SDS011;21367;51.930;8.112;2023-06-14T14:09:56;8.65;;;1.85;;
35223;SDS011;21367;51.930;8.112;2023-06-14T14:15:00;7.57;;;1.60;;
35223;SDS011;21367;51.930;8.112;2023-06-14T14:20:04;15.25;;;1.80;;
35223;SDS011;21367;51.930;8.112;2023-06-14T14:25:11;11.32;;;1.48;;
35223;SDS011;21367;51.930;8.112;2023-06-14T14:30:15;4.65;;;1.73;;
35223;SDS011;21367;51.930;8.112;2023-06-14T14:35:21;2.45;;;1.58;;
35223;SDS011;21367;51.930;8.112;2023-06-14T14:40:29;2.60;;;1.45;;
35223;SDS011;21367;51.930;8.112;2023-06-14T14:45:33;3.00;;;1.70;;
35223;SDS011;21367;51.930;8.112;2023-06-14T14:50:37;3.55;;;1.30;;
35223;SDS011;21367;51.930;8.112;2023-06-14T14:55:43;2.30;;;1.30;;
35223;SDS011;21367;51.930;8.112;2023-06-14T15:00:47;7.25;;;1.38;;
35223;SDS011;21367;51.930;8.112;2023-06-14T15:05:50;2.67;;;1.30;;
35223;SDS011;21367;51.930;8.112;2023-06-14T15:10:57;2.45;;;1.77;;
35223;SDS011;21367;51.930;8.112;2023-06-14T15:16:01;2.63;;;1.35;;
35223;SDS011;21367;51.930;8.112;2023-06-14T15:21:05;6.38;;;1.92;;
35223;SDS011;21367;51.930;8.112;2023-06-14T15:26:11;5.97;;;1.45;;
35223;SDS011;21367;51.930;8.112;2023-06-14T15:31:15;4.82;;;2.20;;
35223;SDS011;21367;51.930;8.112;2023-06-14T15:36:18;6.72;;;1.70;;
35223;SDS011;21367;51.930;8.112;2023-06-14T15:41:25;6.38;;;1.50;;
35223;SDS011;21367;51.930;8.112;2023-06-14T15:46:28;5.28;;;1.75;;
35223;SDS011;21367;51.930;8.112;2023-06-14T15:51:32;2.95;;;1.60;;
35223;SDS011;21367;51.930;8.112;2023-06-14T15:56:38;9.57;;;1.60;;
35223;SDS011;21367;51.930;8.112;2023-06-14T16:01:42;9.48;;;1.75;;
35223;SDS011;21367;51.930;8.112;2023-06-14T16:06:46;7.55;;;2.22;;
35223;SDS011;21367;51.930;8.112;2023-06-14T16:11:52;4.25;;;1.70;;
35223;SDS011;21367;51.930;8.112;2023-06-14T16:16:57;3.25;;;1.42;;
35223;SDS011;21367;51.930;8.112;2023-06-14T16:22:01;9.00;;;1.73;;
35223;SDS011;21367;51.930;8.112;2023-06-14T16:27:07;8.20;;;2.20;;
35223;SDS011;21367;51.930;8.112;2023-06-14T16:32:12;3.35;;;1.90;;
35223;SDS011;21367;51.930;8.112;2023-06-14T16:37:16;2.97;;;1.83;;
35223;SDS011;21367;51.930;8.112;2023-06-14T16:42:23;6.75;;;2.15;;
35223;SDS011;21367;51.930;8.112;2023-06-14T16:47:26;8.07;;;2.45;;
35223;SDS011;21367;51.930;8.112;2023-06-14T16:52:30;4.15;;;2.28;;
35223;SDS011;21367;51.930;8.112;2023-06-14T16:57:37;4.95;;;2.10;;
35223;SDS011;21367;51.930;8.112;2023-06-14T17:02:41;5.93;;;2.30;;
35223;SDS011;21367;51.930;8.112;2023-06-14T17:07:46;7.50;;;2.60;;
35223;SDS011;21367;51.930;8.112;2023-06-14T17:12:52;5.53;;;2.70;;
35223;SDS011;21367;51.930;8.112;2023-06-14T17:17:55;10.85;;;2.40;;
35223;SDS011;21367;51.930;8.112;2023-06-14T17:22:59;10.45;;;2.58;;
35223;SDS011;21367;51.930;8.112;2023-06-14T17:28:05;9.38;;;2.58;;
35223;SDS011;21367;51.930;8.112;2023-06-14T17:33:10;7.05;;;2.55;;
35223;SDS011;21367;51.930;8.112;2023-06-14T17:38:13;9.70;;;2.63;;
35223;SDS011;21367;51.930;8.112;2023-06-14T17:43:20;13.50;;;2.95;;
35223;SDS011;21367;51.930;8.112;2023-06-14T17:48:24;10.80;;;2.67;;
35223;SDS011;21367;51.930;8.112;2023-06-14T17:53:33;11.68;;;2.60;;
35223;SDS011;21367;51.930;8.112;2023-06-14T17:58:39;9.88;;;2.72;;
35223;SDS011;21367;51.930;8.112;2023-06-14T18:03:43;7.03;;;3.03;;
35223;SDS011;21367;51.930;8.112;2023-06-14T18:08:47;8.52;;;2.90;;
35223;SDS011;21367;51.930;8.112;2023-06-14T18:13:53;10.02;;;3.05;;
35223;SDS011;21367;51.930;8.112;2023-06-14T18:18:56;12.88;;;2.97;;
35223;SDS011;21367;51.930;8.112;2023-06-14T18:24:00;7.90;;;2.90;;
35223;SDS011;21367;51.930;8.112;2023-06-14T18:29:06;8.60;;;3.30;;
35223;SDS011;21367;51.930;8.112;2023-06-14T18:34:10;15.30;;;3.28;;
35223;SDS011;21367;51.930;8.112;2023-06-14T18:39:14;6.75;;;2.97;;
35223;SDS011;21367;51.930;8.112;2023-06-14T18:44:22;14.65;;;2.85;;
35223;SDS011;21367;51.930;8.112;2023-06-14T18:49:25;8.30;;;3.38;;
35223;SDS011;21367;51.930;8.112;2023-06-14T18:54:29;7.00;;;3.03;;
35223;SDS011;21367;51.930;8.112;2023-06-14T18:59:36;6.90;;;3.60;;
35223;SDS011;21367;51.930;8.112;2023-06-14T19:04:39;7.80;;;3.30;;
35223;SDS011;21367;51.930;8.112;2023-06-14T19:09:43;9.00;;;3.50;;
35223;SDS011;21367;51.930;8.112;2023-06-14T19:14:49;6.90;;;3.05;;
35223;SDS011;21367;51.930;8.112;2023-06-14T19:19:53;5.45;;;3.05;;
35223;SDS011;21367;51.930;8.112;2023-06-14T19:24:56;9.43;;;3.40;;
35223;SDS011;21367;51.930;8.112;2023-06-14T19:30:03;7.82;;;3.05;;
35223;SDS011;21367;51.930;8.112;2023-06-14T19:35:08;11.85;;;4.53;;
35223;SDS011;21367;51.930;8.112;2023-06-14T19:40:12;10.65;;;3.40;;
35223;SDS011;21367;51.930;8.112;2023-06-14T19:45:21;16.10;;;3.45;;
35223;SDS011;21367;51.930;8.112;2023-06-14T19:50:24;9.75;;;3.50;;
35223;SDS011;21367;51.930;8.112;2023-06-14T19:55:28;15.35;;;4.10;;
35223;SDS011;21367;51.930;8.112;2023-06-14T20:00:34;16.25;;;3.58;;
35223;SDS011;21367;51.930;8.112;2023-06-14T20:05:38;9.23;;;3.15;;
35223;SDS011;21367;51.930;8.112;2023-06-14T20:10:42;13.82;;;3.60;;
35223;SDS011;21367;51.930;8.112;2023-06-14T20:15:49;11.93;;;3.80;;
35223;SDS011;21367;51.930;8.112;2023-06-14T20:20:55;9.68;;;3.10;;
35223;SDS011;21367;51.930;8.112;2023-06-14T20:25:59;9.48;;;3.38;;
35223;SDS011;21367;51.930;8.112;2023-06-14T20:31:05;10.02;;;3.60;;
35223;SDS011;21367;51.930;8.112;2023-06-14T20:36:10;13.32;;;4.40;;
35223;SDS011;21367;51.930;8.112;2023-06-14T20:41:15;14.13;;;3.45;;
35223;SDS011;21367;51.930;8.112;2023-06-14T20:46:21;12.10;;;3.45;;
35223;SDS011;21367;51.930;8.112;2023-06-14T20:51:28;10.10;;;3.30;;
35223;SDS011;21367;51.930;8.112;2023-06-14T20:56:32;16.33;;;3.45;;
35223;SDS011;21367;51.930;8.112;2023-06-14T21:01:38;12.35;;;3.90;;
35223;SDS011;21367;51.930;8.112;2023-06-14T21:06:43;11.65;;;3.70;;
35223;SDS011;21367;51.930;8.112;2023-06-14T21:11:46;16.05;;;4.20;;
35223;SDS011;21367;51.930;8.112;2023-06-14T21:16:53;14.00;;;3.28;;
35223;SDS011;21367;51.930;8.112;2023-06-14T21:21:56;6.85;;;3.53;;
35223;SDS011;21367;51.930;8.112;2023-06-14T21:27:00;10.38;;;3.63;;
35223;SDS011;21367;51.930;8.112;2023-06-14T21:32:07;9.38;;;3.50;;
35223;SDS011;21367;51.930;8.112;2023-06-14T21:37:11;8.75;;;3.60;;
35223;SDS011;21367;51.930;8.112;2023-06-14T21:42:15;15.68;;;3.60;;
35223;SDS011;21367;51.930;8.112;2023-06-14T21:47:21;5.53;;;3.50;;
35223;SDS011;21367;51.930;8.112;2023-06-14T21:52:25;10.50;;;3.53;;
35223;SDS011;21367;51.930;8.112;2023-06-14T21:57:29;9.20;;;3.78;;
35223;SDS011;21367;51.930;8.112;2023-06-14T22:02:35;10.98;;;3.83;;
35223;SDS011;21367;51.930;8.112;2023-06-14T22:07:39;6.15;;;3.33;;
35223;SDS011;21367;51.930;8.112;2023-06-14T22:12:43;11.20;;;3.75;;
35223;SDS011;21367;51.930;8.112;2023-06-14T22:17:52;6.78;;;3.83;;
35223;SDS011;21367;51.930;8.112;2023-06-14T22:22:56;10.95;;;4.05;;
35223;SDS011;21367;51.930;8.112;2023-06-14T22:28:00;7.72;;;3.70;;
35223;SDS011;21367;51.930;8.112;2023-06-14T22:33:07;8.90;;;4.20;;
35223;SDS011;21367;51.930;8.112;2023-06-14T22:38:11;10.77;;;4.10;;
35223;SDS011;21367;51.930;8.112;2023-06-14T22:43:20;13.20;;;3.85;;
35223;SDS011;21367;51.930;8.112;2023-06-14T22:48:26;7.07;;;3.80;;
35223;SDS011;21367;51.930;8.112;2023-06-14T22:53:30;8.25;;;3.90;;
35223;SDS011;21367;51.930;8.112;2023-06-14T22:58:33;17.15;;;4.60;;
35223;SDS011;21367;51.930;8.112;2023-06-14T23:03:42;14.98;;;4.13;;
35223;SDS011;21367;51.930;8.112;2023-06-14T23:08:47;7.47;;;4.38;;
35223;SDS011;21367;51.930;8.112;2023-06-14T23:13:54;8.30;;;4.28;;
35223;SDS011;21367;51.930;8.112;2023-06-14T23:19:01;15.32;;;5.65;;
35223;SDS011;21367;51.930;8.112;2023-06-14T23:29:10;10.98;;;5.03;;
35223;SDS011;21367;51.930;8.112;2023-06-14T23:34:21;8.80;;;4.32;;
35223;SDS011;21367;51.930;8.112;2023-06-14T23:39:26;9.65;;;4.60;;
35223;SDS011;21367;51.930;8.112;2023-06-14T23:44:30;11.88;;;4.57;;
35223;SDS011;21367;51.930;8.112;2023-06-14T23:49:39;11.18;;;4.63;;
35223;SDS011;21367;51.930;8.112;2023-06-14T23:54:45;8.73;;;4.78;;
35223;SDS011;21367;51.930;8.112;2023-06-14T23:59:49;8.07;;;4.38;;
